createdAt,value
2022-07-29T00:00:56.307Z,23.63
2022-07-29T00:01:56.351Z,23.66
2022-07-29T00:02:59.546Z,23.59
2022-07-29T00:03:56.471Z,23.55
2022-07-29T00:04:56.303Z,23.59
2022-07-29T00:05:56.363Z,23.52
2022-07-29T00:06:56.299Z,23.58
2022-07-29T00:07:56.318Z,23.63
2022-07-29T00:08:56.333Z,23.63
2022-07-29T00:09:57.255Z,23.69
2022-07-29T00:10:56.333Z,23.66
2022-07-29T00:11:56.320Z,23.64
2022-07-29T00:12:57.645Z,23.66
2022-07-29T00:13:59.185Z,23.62
2022-07-29T00:14:56.319Z,23.55
2022-07-29T00:15:56.336Z,23.54
2022-07-29T00:16:56.594Z,23.56
2022-07-29T00:17:56.326Z,23.63
2022-07-29T00:18:57.294Z,23.67
2022-07-29T00:19:56.358Z,23.66
2022-07-29T00:20:56.410Z,23.62
2022-07-29T00:21:56.346Z,23.63
2022-07-29T00:22:56.349Z,23.55
2022-07-29T00:23:56.360Z,23.58
2022-07-29T00:24:57.528Z,23.59
2022-07-29T00:25:56.369Z,23.58
2022-07-29T00:26:56.369Z,23.63
2022-07-29T00:27:56.381Z,23.66
2022-07-29T00:29:35.280Z,23.55
2022-07-29T00:29:59.468Z,23.64
2022-07-29T00:30:56.368Z,23.63
2022-07-29T00:31:56.635Z,23.63
2022-07-29T00:32:56.356Z,23.67
2022-07-29T00:33:56.453Z,23.56
2022-07-29T00:34:56.411Z,23.64
2022-07-29T00:35:59.500Z,23.52
2022-07-29T00:36:56.430Z,23.63
2022-07-29T00:37:56.396Z,23.62
2022-07-29T00:38:56.415Z,23.66
2022-07-29T00:39:56.385Z,23.59
2022-07-29T00:40:57.448Z,23.56
2022-07-29T00:41:56.938Z,23.59
2022-07-29T00:42:56.424Z,23.66
2022-07-29T00:43:56.455Z,23.63
2022-07-29T00:44:56.408Z,23.62
2022-07-29T00:45:56.403Z,23.59
2022-07-29T00:46:56.693Z,23.55
2022-07-29T00:47:56.403Z,23.64
2022-07-29T00:48:56.693Z,23.55
2022-07-29T00:49:56.441Z,23.54
2022-07-29T00:50:56.385Z,23.59
2022-07-29T00:51:56.425Z,23.58
2022-07-29T00:52:56.391Z,23.51
2022-07-29T00:53:56.431Z,23.54
2022-07-29T00:54:56.386Z,23.56
2022-07-29T00:55:57.222Z,23.62
2022-07-29T00:56:56.383Z,23.59
2022-07-29T00:57:56.400Z,23.54
2022-07-29T00:58:56.423Z,23.48
2022-07-29T00:59:56.421Z,23.55
2022-07-29T01:00:56.692Z,23.55
2022-07-29T01:01:56.741Z,23.55
2022-07-29T01:02:56.417Z,23.54
2022-07-29T01:03:56.431Z,23.49
2022-07-29T01:04:56.414Z,23.52
2022-07-29T01:05:59.422Z,23.52
2022-07-29T01:06:56.436Z,23.45
2022-07-29T01:07:59.195Z,23.45
2022-07-29T01:08:56.480Z,23.49
2022-07-29T01:09:56.430Z,23.49
2022-07-29T01:10:57.040Z,23.49
2022-07-29T01:11:56.431Z,23.47
2022-07-29T01:12:59.229Z,23.52
2022-07-29T01:13:56.463Z,23.51
2022-07-29T01:14:56.425Z,23.42
2022-07-29T01:15:56.762Z,23.37
2022-07-29T01:16:56.429Z,23.36
2022-07-29T01:17:58.326Z,23.36
2022-07-29T01:18:59.217Z,23.37
2022-07-29T01:19:56.437Z,23.29
2022-07-29T01:20:56.437Z,23.23
2022-07-29T01:21:56.442Z,23.39
2022-07-29T01:22:56.435Z,23.34
2022-07-29T01:23:57.936Z,23.4
2022-07-29T01:24:56.469Z,23.34
2022-07-29T01:26:01.049Z,23.39
2022-07-29T01:26:57.212Z,23.44
2022-07-29T01:27:57.350Z,23.37
2022-07-29T01:28:56.932Z,23.32
2022-07-29T01:30:00.869Z,23.21
2022-07-29T01:30:59.709Z,23.32
2022-07-29T01:32:03.945Z,23.28
2022-07-29T01:32:56.469Z,23.45
2022-07-29T01:33:56.516Z,23.33
2022-07-29T01:34:59.290Z,23.34
2022-07-29T01:35:56.467Z,23.2
2022-07-29T01:36:56.474Z,23.33
2022-07-29T01:37:56.470Z,23.25
2022-07-29T01:38:56.486Z,23.18
2022-07-29T01:39:56.477Z,23.29
2022-07-29T01:40:56.478Z,23.29
2022-07-29T01:41:56.495Z,23.16
2022-07-29T01:42:56.489Z,23.1
2022-07-29T01:43:56.504Z,23.21
2022-07-29T01:44:56.487Z,23.11
2022-07-29T01:45:56.753Z,23.25
2022-07-29T01:46:56.852Z,23.26
2022-07-29T01:47:56.493Z,23.28
2022-07-29T01:48:56.828Z,23.33
2022-07-29T01:49:56.508Z,23.25
2022-07-29T01:50:56.493Z,23.32
2022-07-29T01:51:56.501Z,23.25
2022-07-29T01:52:56.497Z,23.29
2022-07-29T01:53:56.524Z,23.23
2022-07-29T01:54:56.501Z,23.28
2022-07-29T01:56:01.213Z,23.21
2022-07-29T01:56:59.331Z,23.21
2022-07-29T01:57:56.517Z,23.25
2022-07-29T01:58:57.599Z,23.2
2022-07-29T01:59:56.714Z,23.18
2022-07-29T02:00:56.524Z,23.25
2022-07-29T02:01:59.389Z,23.13
2022-07-29T02:02:56.514Z,23.16
2022-07-29T02:03:56.542Z,23.06
2022-07-29T02:04:56.780Z,23.04
2022-07-29T02:05:56.528Z,23.1
2022-07-29T02:06:56.549Z,23.01
2022-07-29T02:07:59.535Z,23.08
2022-07-29T02:08:56.793Z,23.1
2022-07-29T02:09:56.534Z,23.01
2022-07-29T02:10:56.550Z,23.06
2022-07-29T02:11:56.534Z,22.96
2022-07-29T02:12:56.548Z,23.02
2022-07-29T02:13:56.600Z,22.95
2022-07-29T02:14:56.535Z,22.98
2022-07-29T02:15:56.804Z,22.98
2022-07-29T02:16:56.556Z,22.98
2022-07-29T02:17:56.547Z,22.92
2022-07-29T02:18:59.658Z,22.93
2022-07-29T02:19:57.460Z,23.01
2022-07-29T02:20:56.542Z,23.01
2022-07-29T02:21:56.560Z,22.83
2022-07-29T02:22:56.555Z,22.92
2022-07-29T02:23:56.567Z,22.91
2022-07-29T02:24:56.564Z,22.88
2022-07-29T02:25:56.691Z,22.91
2022-07-29T02:26:56.564Z,22.92
2022-07-29T02:27:56.555Z,22.86
2022-07-29T02:28:56.568Z,22.86
2022-07-29T02:29:59.607Z,22.8
2022-07-29T02:30:56.884Z,22.71
2022-07-29T02:31:56.573Z,22.77
2022-07-29T02:32:56.574Z,22.81
2022-07-29T02:33:56.568Z,22.83
2022-07-29T02:34:56.573Z,22.74
2022-07-29T02:35:56.571Z,22.7
2022-07-29T02:36:56.569Z,22.77
2022-07-29T02:37:56.579Z,22.8
2022-07-29T02:38:56.649Z,22.77
2022-07-29T02:39:56.586Z,22.77
2022-07-29T02:40:59.367Z,22.71
2022-07-29T02:41:56.595Z,22.74
2022-07-29T02:42:56.601Z,22.74
2022-07-29T02:43:56.622Z,22.74
2022-07-29T02:44:56.813Z,22.65
2022-07-29T02:45:56.828Z,22.74
2022-07-29T02:46:56.939Z,22.77
2022-07-29T02:47:56.599Z,22.76
2022-07-29T02:48:56.787Z,22.71
2022-07-29T02:49:56.613Z,22.68
2022-07-29T02:50:56.619Z,22.61
2022-07-29T02:51:59.910Z,22.71
2022-07-29T02:52:59.533Z,22.63
2022-07-29T02:53:56.604Z,22.68
2022-07-29T02:54:56.605Z,22.65
2022-07-29T02:55:56.639Z,22.58
2022-07-29T02:56:59.385Z,22.68
2022-07-29T02:57:59.814Z,22.51
2022-07-29T02:58:56.633Z,22.67
2022-07-29T02:59:56.626Z,22.63
2022-07-29T03:00:56.642Z,22.67
2022-07-29T03:01:56.898Z,22.52
2022-07-29T03:02:56.647Z,22.59
2022-07-29T03:03:56.296Z,22.59
2022-07-29T03:04:56.881Z,22.53
2022-07-29T03:05:56.674Z,22.53
2022-07-29T03:06:56.634Z,22.59
2022-07-29T03:07:57.707Z,22.46
2022-07-29T03:08:56.626Z,22.52
2022-07-29T03:09:56.638Z,22.58
2022-07-29T03:10:56.664Z,22.38
2022-07-29T03:11:56.646Z,22.44
2022-07-29T03:12:56.655Z,22.38
2022-07-29T03:13:56.639Z,22.38
2022-07-29T03:14:56.683Z,22.36
2022-07-29T03:15:56.884Z,22.31
2022-07-29T03:16:56.671Z,22.28
2022-07-29T03:17:56.670Z,22.26
2022-07-29T03:18:56.507Z,22.3
2022-07-29T03:19:56.696Z,22.26
2022-07-29T03:20:56.660Z,22.3
2022-07-29T03:21:56.659Z,22.31
2022-07-29T03:22:56.654Z,22.22
2022-07-29T03:23:56.672Z,22.22
2022-07-29T03:24:56.688Z,22.31
2022-07-29T03:25:56.809Z,22.31
2022-07-29T03:26:56.667Z,22.31
2022-07-29T03:27:56.693Z,22.31
2022-07-29T03:28:57.289Z,22.23
2022-07-29T03:29:58.736Z,22.23
2022-07-29T03:30:57.499Z,22.08
2022-07-29T03:31:56.679Z,22.14
2022-07-29T03:32:58.981Z,22.21
2022-07-29T03:33:56.703Z,22.25
2022-07-29T03:34:59.837Z,22.15
2022-07-29T03:35:56.680Z,22.19
2022-07-29T03:36:56.703Z,22.25
2022-07-29T03:37:56.701Z,22.22
2022-07-29T03:38:56.690Z,22.21
2022-07-29T03:39:58.048Z,22.14
2022-07-29T03:40:56.724Z,22.22
2022-07-29T03:41:56.759Z,22.16
2022-07-29T03:42:56.725Z,22.15
2022-07-29T03:43:56.721Z,22.22
2022-07-29T03:44:56.739Z,22.07
2022-07-29T03:46:00.011Z,22.12
2022-07-29T03:46:56.828Z,22.06
2022-07-29T03:48:03.378Z,22.06
2022-07-29T03:48:56.941Z,22.01
2022-07-29T03:49:56.799Z,22.01
2022-07-29T03:50:57.989Z,21.99
2022-07-29T03:51:56.724Z,21.99
2022-07-29T03:52:56.720Z,21.88
2022-07-29T03:53:58.439Z,21.96
2022-07-29T03:54:56.757Z,21.84
2022-07-29T03:55:56.749Z,21.88
2022-07-29T03:56:56.791Z,21.84
2022-07-29T03:57:56.741Z,21.85
2022-07-29T03:58:56.724Z,21.7
2022-07-29T03:59:56.754Z,21.72
2022-07-29T04:00:56.738Z,21.7
2022-07-29T04:01:59.779Z,21.69
2022-07-29T04:02:56.874Z,21.68
2022-07-29T04:03:59.988Z,21.74
2022-07-29T04:04:56.767Z,21.77
2022-07-29T04:05:56.742Z,21.63
2022-07-29T04:06:59.468Z,21.6
2022-07-29T04:07:56.809Z,21.63
2022-07-29T04:08:56.744Z,21.56
2022-07-29T04:09:56.780Z,21.59
2022-07-29T04:10:56.753Z,21.54
2022-07-29T04:12:07.833Z,21.51
2022-07-29T04:12:59.564Z,21.47
2022-07-29T04:13:56.764Z,21.5
2022-07-29T04:14:56.782Z,21.48
2022-07-29T04:15:57.013Z,21.37
2022-07-29T04:16:56.755Z,21.41
2022-07-29T04:17:56.766Z,21.25
2022-07-29T04:18:56.756Z,21.23
2022-07-29T04:19:56.783Z,21.26
2022-07-29T04:20:56.762Z,21.03
2022-07-29T04:21:56.794Z,21.11
2022-07-29T04:22:56.775Z,21.05
2022-07-29T04:24:00.273Z,21.17
2022-07-29T04:25:00.301Z,21.2
2022-07-29T04:25:56.773Z,21.19
2022-07-29T04:26:56.771Z,21.15
2022-07-29T04:27:56.781Z,21.15
2022-07-29T04:28:56.794Z,21.22
2022-07-29T04:30:03.831Z,21.15
2022-07-29T04:30:56.990Z,21.19
2022-07-29T04:31:56.797Z,21.07
2022-07-29T04:32:56.793Z,21.01
2022-07-29T04:33:56.791Z,20.96
2022-07-29T04:34:59.651Z,20.82
2022-07-29T04:35:57.947Z,20.82
2022-07-29T04:36:56.792Z,20.86
2022-07-29T04:37:56.801Z,20.88
2022-07-29T04:38:56.955Z,20.92
2022-07-29T04:39:56.806Z,20.83
2022-07-29T04:40:58.565Z,20.86
2022-07-29T04:41:59.411Z,20.85
2022-07-29T04:43:03.363Z,20.92
2022-07-29T04:43:56.801Z,20.92
2022-07-29T04:44:56.821Z,20.93
2022-07-29T04:46:00.191Z,21
2022-07-29T04:46:56.812Z,20.93
2022-07-29T04:47:56.823Z,20.92
2022-07-29T04:48:57.091Z,21.04
2022-07-29T04:49:56.821Z,21.07
2022-07-29T04:50:56.854Z,21.15
2022-07-29T04:51:56.858Z,21.11
2022-07-29T04:52:56.832Z,21.13
2022-07-29T04:53:56.821Z,21.08
2022-07-29T04:54:56.827Z,21.14
2022-07-29T04:55:56.871Z,21.11
2022-07-29T04:56:59.860Z,21.11
2022-07-29T04:57:56.841Z,21.07
2022-07-29T04:58:56.834Z,21.07
2022-07-29T04:59:56.839Z,21.1
2022-07-29T05:00:56.880Z,21.14
2022-07-29T05:01:57.226Z,21.01
2022-07-29T05:02:59.274Z,21
2022-07-29T05:04:02.969Z,20.93
2022-07-29T05:04:56.859Z,20.98
2022-07-29T05:05:56.868Z,20.98
2022-07-29T05:06:57.466Z,21.01
2022-07-29T05:07:59.767Z,21.1
2022-07-29T05:08:56.848Z,21.1
2022-07-29T05:09:56.881Z,21.19
2022-07-29T05:10:56.897Z,21.29
2022-07-29T05:11:56.857Z,21.26
2022-07-29T05:12:56.969Z,21.4
2022-07-29T05:13:56.867Z,21.43
2022-07-29T05:14:56.866Z,21.33
2022-07-29T05:15:57.093Z,21.25
2022-07-29T05:16:56.858Z,21.32
2022-07-29T05:17:56.869Z,21.4
2022-07-29T05:18:58.006Z,21.44
2022-07-29T05:19:56.902Z,21.41
2022-07-29T05:20:56.976Z,21.41
2022-07-29T05:21:56.953Z,21.38
2022-07-29T05:22:56.883Z,21.48
2022-07-29T05:23:59.754Z,21.48
2022-07-29T05:24:56.885Z,21.44
2022-07-29T05:25:57.149Z,21.51
2022-07-29T05:26:57.358Z,21.54
2022-07-29T05:27:56.889Z,21.48
2022-07-29T05:28:56.931Z,21.51
2022-07-29T05:29:56.887Z,21.5
2022-07-29T05:30:57.100Z,21.53
2022-07-29T05:31:56.894Z,21.47
2022-07-29T05:32:56.914Z,21.54
2022-07-29T05:33:56.906Z,21.48
2022-07-29T05:34:59.676Z,21.41
2022-07-29T05:36:02.881Z,21.47
2022-07-29T05:36:59.883Z,21.53
2022-07-29T05:37:56.907Z,21.5
2022-07-29T05:38:56.973Z,21.53
2022-07-29T05:40:02.555Z,21.59
2022-07-29T05:40:56.936Z,21.65
2022-07-29T05:41:56.909Z,21.72
2022-07-29T05:42:56.938Z,21.75
2022-07-29T05:43:56.923Z,21.7
2022-07-29T05:44:56.948Z,21.83
2022-07-29T05:45:57.172Z,21.81
2022-07-29T05:46:56.911Z,21.83
2022-07-29T05:47:57.000Z,21.81
2022-07-29T05:48:57.171Z,21.84
2022-07-29T05:49:56.936Z,21.89
2022-07-29T05:50:56.939Z,21.96
2022-07-29T05:51:56.987Z,22.03
2022-07-29T05:52:56.930Z,22.04
2022-07-29T05:53:56.957Z,22.22
2022-07-29T05:54:56.929Z,22.21
2022-07-29T05:55:56.966Z,22.26
2022-07-29T05:56:56.940Z,22.34
2022-07-29T05:57:56.941Z,22.36
2022-07-29T05:58:56.937Z,22.49
2022-07-29T05:59:56.944Z,22.58
2022-07-29T06:00:56.978Z,22.59
2022-07-29T06:01:59.998Z,22.63
2022-07-29T06:02:56.958Z,22.84
2022-07-29T06:03:57.098Z,22.77
2022-07-29T06:04:57.286Z,22.93
2022-07-29T06:05:57.012Z,23.01
2022-07-29T06:06:59.748Z,23.08
2022-07-29T06:07:56.956Z,23.1
2022-07-29T06:08:56.962Z,23.33
2022-07-29T06:09:56.999Z,23.28
2022-07-29T06:10:57.015Z,23.37
2022-07-29T06:11:56.962Z,23.52
2022-07-29T06:13:00.033Z,23.58
2022-07-29T06:13:57.017Z,23.69
2022-07-29T06:14:58.929Z,23.84
2022-07-29T06:15:57.260Z,23.85
2022-07-29T06:16:57.127Z,23.92
2022-07-29T06:18:05.667Z,23.85
2022-07-29T06:18:56.979Z,23.82
2022-07-29T06:19:56.982Z,23.96
2022-07-29T06:20:57.024Z,24.06
2022-07-29T06:21:56.994Z,24.16
2022-07-29T06:22:57.009Z,24.1
2022-07-29T06:23:56.989Z,24.19
2022-07-29T06:24:57.027Z,24.4
2022-07-29T06:25:57.010Z,24.53
2022-07-29T06:26:56.989Z,24.71
2022-07-29T06:27:56.991Z,24.89
2022-07-29T06:29:00.081Z,24.97
2022-07-29T06:29:57.004Z,25.24
2022-07-29T06:30:57.335Z,25.29
2022-07-29T06:31:56.998Z,25.51
2022-07-29T06:32:57.019Z,25.61
2022-07-29T06:33:59.246Z,25.8
2022-07-29T06:35:38.150Z,26.27
2022-07-29T06:36:00.247Z,26.36
2022-07-29T06:36:58.763Z,26.68
2022-07-29T06:38:02.922Z,26.73
2022-07-29T06:38:58.746Z,26.91
2022-07-29T06:40:04.115Z,27.01
2022-07-29T06:40:58.314Z,26.85
2022-07-29T06:41:58.313Z,27.01
2022-07-29T06:42:58.299Z,27.11
2022-07-29T06:43:59.754Z,27.15
2022-07-29T06:44:58.331Z,27.35
2022-07-29T06:46:01.745Z,27.45
2022-07-29T06:46:58.313Z,27.3
2022-07-29T06:47:58.308Z,27.63
2022-07-29T06:48:58.619Z,27.73
2022-07-29T06:49:58.318Z,27.94
2022-07-29T06:51:01.110Z,27.9
2022-07-29T06:51:58.322Z,27.98
2022-07-29T06:52:58.318Z,28.23
2022-07-29T06:54:07.128Z,27.95
2022-07-29T06:54:58.337Z,28
2022-07-29T06:55:58.329Z,28.25
2022-07-29T06:56:58.339Z,28.34
2022-07-29T06:57:58.331Z,28.41
2022-07-29T06:58:58.339Z,28.6
2022-07-29T06:59:58.339Z,28.71
2022-07-29T07:00:58.511Z,28.78
2022-07-29T07:02:01.634Z,28.77
2022-07-29T07:02:58.605Z,28.75
2022-07-29T07:03:58.340Z,28.78
2022-07-29T07:04:58.340Z,28.93
2022-07-29T07:05:58.362Z,29.06
2022-07-29T07:06:58.355Z,29.22
2022-07-29T07:07:58.346Z,29.12
2022-07-29T07:08:58.351Z,29.1
2022-07-29T07:09:58.354Z,29.3
2022-07-29T07:10:58.354Z,29.37
2022-07-29T07:11:58.370Z,29.61
2022-07-29T07:13:01.188Z,29.21
2022-07-29T07:14:04.644Z,29.13
2022-07-29T07:14:58.377Z,29.2
2022-07-29T07:15:58.370Z,29.39
2022-07-29T07:16:59.579Z,29.3
2022-07-29T07:17:58.364Z,29.06
2022-07-29T07:18:58.410Z,29.42
2022-07-29T07:19:58.372Z,29.15
2022-07-29T07:20:58.411Z,29.34
2022-07-29T07:22:00.272Z,29.22
2022-07-29T07:22:58.404Z,29.07
2022-07-29T07:24:01.496Z,29.35
2022-07-29T07:24:58.383Z,29.25
2022-07-29T07:25:58.381Z,29.47
2022-07-29T07:26:58.406Z,29.47
2022-07-29T07:27:58.392Z,29.46
2022-07-29T07:28:58.406Z,29.67
2022-07-29T07:29:58.388Z,29.95
2022-07-29T07:30:58.382Z,30.01
2022-07-29T07:32:03.938Z,30.17
2022-07-29T07:32:58.384Z,30.36
2022-07-29T07:33:58.394Z,30.43
2022-07-29T07:35:01.391Z,30.48
2022-07-29T07:35:58.417Z,30.29
2022-07-29T07:36:58.431Z,30.16
2022-07-29T07:37:59.210Z,30.27
2022-07-29T07:38:58.414Z,30.06
2022-07-29T07:39:58.416Z,29.96
2022-07-29T07:40:58.414Z,29.62
2022-07-29T07:41:58.445Z,29.73
2022-07-29T07:42:58.432Z,29.71
2022-07-29T07:43:58.413Z,29.53
2022-07-29T07:45:18.812Z,29.76
2022-07-29T07:46:01.632Z,29.55
2022-07-29T07:47:08.744Z,29.53
2022-07-29T07:47:58.433Z,29.46
2022-07-29T07:48:58.736Z,29.5
2022-07-29T07:49:58.432Z,29.46
2022-07-29T07:50:59.443Z,29.32
2022-07-29T07:51:58.448Z,29.37
2022-07-29T07:52:58.538Z,29.43
2022-07-29T07:53:59.957Z,29.4
2022-07-29T07:54:58.602Z,29.34
2022-07-29T07:56:15.308Z,29.24
2022-07-29T07:56:58.474Z,29.28
2022-07-29T07:57:58.460Z,29.37
2022-07-29T07:58:58.598Z,29.21
2022-07-29T07:59:58.449Z,29.22
2022-07-29T08:00:58.726Z,29.21
2022-07-29T08:02:01.035Z,29.07
2022-07-29T08:02:58.483Z,29.06
2022-07-29T08:03:58.447Z,29.21
2022-07-29T08:04:58.455Z,29.2
2022-07-29T08:05:58.463Z,29.28
2022-07-29T08:06:58.498Z,29.2
2022-07-29T08:07:58.460Z,29.09
2022-07-29T08:09:30.239Z,29.09
2022-07-29T08:09:58.643Z,29.09
2022-07-29T08:10:58.471Z,29.06
2022-07-29T08:11:58.518Z,28.87
2022-07-29T08:12:58.476Z,29.16
2022-07-29T08:13:58.471Z,29.28
2022-07-29T08:14:58.474Z,29.37
2022-07-29T08:15:58.967Z,29.43
2022-07-29T08:16:58.823Z,29.39
2022-07-29T08:17:58.502Z,29.37
2022-07-29T08:18:58.715Z,29.58
2022-07-29T08:19:58.501Z,29.58
2022-07-29T08:20:58.485Z,29.58
2022-07-29T08:21:58.970Z,29.55
2022-07-29T08:22:58.558Z,29.67
2022-07-29T08:24:09.684Z,29.71
2022-07-29T08:25:00.171Z,29.84
2022-07-29T08:25:59.612Z,29.83
2022-07-29T08:26:58.548Z,29.73
2022-07-29T08:27:58.515Z,29.87
2022-07-29T08:29:01.338Z,29.84
2022-07-29T08:29:58.503Z,29.96
2022-07-29T08:30:58.500Z,30.08
2022-07-29T08:31:59.458Z,30.18
2022-07-29T08:33:00.170Z,30.4
2022-07-29T08:33:58.531Z,30.56
2022-07-29T08:34:58.512Z,30.73
2022-07-29T08:35:58.534Z,30.65
2022-07-29T08:36:58.580Z,30.77
2022-07-29T08:37:58.573Z,30.92
2022-07-29T08:38:58.532Z,30.76
2022-07-29T08:40:01.574Z,30.63
2022-07-29T08:40:58.528Z,30.88
2022-07-29T08:42:02.428Z,31.15
2022-07-29T08:42:58.531Z,31.29
2022-07-29T08:43:58.538Z,31.52
2022-07-29T08:44:58.538Z,31.23
2022-07-29T08:45:58.668Z,31.28
2022-07-29T08:46:59.682Z,31.63
2022-07-29T08:47:58.381Z,31.6
2022-07-29T08:48:58.785Z,31.6
2022-07-29T08:49:58.565Z,31.66
2022-07-29T08:51:01.308Z,31.6
2022-07-29T08:51:59.677Z,31.62
2022-07-29T08:53:04.157Z,31.45
2022-07-29T08:53:58.548Z,31.62
2022-07-29T08:54:58.547Z,31.55
2022-07-29T08:56:01.598Z,31.62
2022-07-29T08:56:59.975Z,31.7
2022-07-29T08:58:02.424Z,31.67
2022-07-29T08:58:59.466Z,31.92
2022-07-29T08:59:58.404Z,32.01
2022-07-29T09:01:00.312Z,31.98
2022-07-29T09:02:02.831Z,32.12
2022-07-29T09:02:58.567Z,32.15
2022-07-29T09:03:59.104Z,32.17
2022-07-29T09:04:58.569Z,32.19
2022-07-29T09:05:58.566Z,32.2
2022-07-29T09:07:00.404Z,32.23
2022-07-29T09:07:58.576Z,32.15
2022-07-29T09:08:58.592Z,32.11
2022-07-29T09:10:00.446Z,31.64
2022-07-29T09:10:58.580Z,31.66
2022-07-29T09:11:59.709Z,31.74
2022-07-29T09:13:01.405Z,31.72
2022-07-29T09:13:58.595Z,31.81
2022-07-29T09:14:58.643Z,31.92
2022-07-29T09:15:58.719Z,32.08
2022-07-29T09:16:59.310Z,32.09
2022-07-29T09:18:01.479Z,31.98
2022-07-29T09:18:58.589Z,31.95
2022-07-29T09:19:58.600Z,31.97
2022-07-29T09:20:58.600Z,31.78
2022-07-29T09:21:58.653Z,31.79
2022-07-29T09:22:58.611Z,31.87
2022-07-29T09:23:58.606Z,31.64
2022-07-29T09:24:58.622Z,31.6
2022-07-29T09:25:58.605Z,31.36
2022-07-29T09:26:59.341Z,31.22
2022-07-29T09:27:58.620Z,31.36
2022-07-29T09:29:01.798Z,31.47
2022-07-29T09:29:59.103Z,31.54
2022-07-29T09:30:58.625Z,31.78
2022-07-29T09:31:58.983Z,31.73
2022-07-29T09:32:58.653Z,31.72
2022-07-29T09:33:58.626Z,31.77
2022-07-29T09:35:05.773Z,31.95
2022-07-29T09:36:01.882Z,32
2022-07-29T09:36:59.882Z,31.85
2022-07-29T09:37:58.657Z,31.92
2022-07-29T09:38:58.641Z,31.87
2022-07-29T09:40:01.663Z,31.78
2022-07-29T09:41:05.387Z,31.9
2022-07-29T09:41:58.645Z,31.77
2022-07-29T09:42:58.691Z,31.48
2022-07-29T09:43:58.662Z,31.33
2022-07-29T09:44:58.488Z,31.44
2022-07-29T09:45:58.659Z,31.44
2022-07-29T09:46:59.837Z,31.1
2022-07-29T09:47:58.767Z,31.15
2022-07-29T09:48:58.858Z,31.2
2022-07-29T09:49:58.667Z,31.28
2022-07-29T09:51:01.510Z,31.17
2022-07-29T09:51:58.663Z,31.29
2022-07-29T09:52:58.709Z,31.39
2022-07-29T09:53:58.681Z,31.25
2022-07-29T09:54:58.678Z,31.37
2022-07-29T09:55:58.665Z,31.37
2022-07-29T09:56:59.620Z,31.44
2022-07-29T09:57:58.675Z,31.39
2022-07-29T09:58:58.723Z,31.33
2022-07-29T09:59:58.683Z,31.14
2022-07-29T10:00:58.987Z,31.15
2022-07-29T10:02:02.274Z,31.17
2022-07-29T10:02:58.910Z,31.2
2022-07-29T10:03:58.697Z,31.07
2022-07-29T10:04:58.691Z,30.96
2022-07-29T10:05:58.684Z,30.89
2022-07-29T10:07:06.093Z,30.91
2022-07-29T10:08:04.859Z,30.93
2022-07-29T10:08:59.035Z,30.76
2022-07-29T10:09:58.726Z,30.85
2022-07-29T10:10:58.746Z,30.78
2022-07-29T10:11:58.983Z,31
2022-07-29T10:13:08.850Z,30.96
2022-07-29T10:13:58.704Z,30.98
2022-07-29T10:14:58.710Z,30.69
2022-07-29T10:15:58.871Z,30.85
2022-07-29T10:16:58.730Z,30.98
2022-07-29T10:17:58.761Z,31.15
2022-07-29T10:18:58.565Z,31.18
2022-07-29T10:19:58.722Z,31.18
2022-07-29T10:20:58.716Z,31.23
2022-07-29T10:22:03.436Z,31.04
2022-07-29T10:22:59.164Z,31.18
2022-07-29T10:24:04.100Z,31.23
2022-07-29T10:24:58.735Z,31.29
2022-07-29T10:25:58.750Z,31.23
2022-07-29T10:26:58.731Z,31.37
2022-07-29T10:27:58.787Z,31.39
2022-07-29T10:28:58.787Z,31.39
2022-07-29T10:29:58.791Z,31.41
2022-07-29T10:30:58.862Z,31.47
2022-07-29T10:31:59.499Z,31.44
2022-07-29T10:32:59.067Z,31.51
2022-07-29T10:33:58.768Z,31.59
2022-07-29T10:34:58.749Z,31.6
2022-07-29T10:35:58.753Z,31.67
2022-07-29T10:37:00.002Z,31.87
2022-07-29T10:37:59.597Z,31.85
2022-07-29T10:38:59.390Z,31.89
2022-07-29T10:39:59.065Z,31.72
2022-07-29T10:41:02.173Z,31.81
2022-07-29T10:42:00.580Z,31.79
2022-07-29T10:42:59.824Z,31.73
2022-07-29T10:43:59.211Z,31.92
2022-07-29T10:44:58.966Z,32.04
2022-07-29T10:45:59.980Z,32.08
2022-07-29T10:47:00.446Z,31.98
2022-07-29T10:47:58.807Z,32.24
2022-07-29T10:48:59.001Z,32.51
2022-07-29T10:50:03.353Z,32.57
2022-07-29T10:50:59.834Z,32.81
2022-07-29T10:52:00.070Z,32.97
2022-07-29T10:52:58.826Z,32.79
2022-07-29T10:54:00.181Z,33.09
2022-07-29T10:54:58.959Z,33.48
2022-07-29T10:56:01.554Z,33.73
2022-07-29T10:56:58.939Z,33.82
2022-07-29T10:58:00.005Z,33.75
2022-07-29T10:58:59.971Z,33.42
2022-07-29T10:59:58.878Z,33.4
2022-07-29T11:01:01.441Z,33.53
2022-07-29T11:02:41.229Z,33.44
2022-07-29T11:02:59.574Z,33.58
2022-07-29T11:08:16.375Z,33.57
2022-07-29T11:09:13.832Z,33.75
2022-07-29T11:10:07.605Z,33.88
2022-07-29T11:11:08.827Z,33.79
2022-07-29T11:12:07.716Z,33.81
2022-07-29T11:13:11.657Z,33.87
2022-07-29T11:14:12.503Z,33.88
2022-07-29T11:15:08.487Z,33.75
2022-07-29T11:16:07.969Z,33.57
2022-07-29T11:17:11.351Z,33.29
2022-07-29T11:18:14.926Z,33.44
2022-07-29T11:19:13.106Z,33.48
2022-07-29T11:20:14.389Z,33.13
2022-07-29T11:21:08.448Z,33.13
2022-07-29T11:22:08.180Z,33.13
2022-07-29T11:23:07.667Z,33.16
2022-07-29T11:24:10.847Z,33.05
2022-07-29T11:25:13.546Z,32.9
2022-07-29T11:26:09.218Z,33.05
2022-07-29T11:27:11.162Z,33.09
2022-07-29T11:28:08.370Z,33.33
2022-07-29T11:29:07.960Z,33.09
2022-07-29T11:30:07.985Z,33.08
2022-07-29T11:31:08.189Z,33.2
2022-07-29T11:32:09.283Z,33.31
2022-07-29T11:33:07.695Z,33.45
2022-07-29T11:34:10.269Z,33.45
2022-07-29T11:35:39.887Z,33.57
2022-07-29T11:36:27.869Z,33.69
2022-07-29T11:37:08.639Z,33.69
2022-07-29T11:38:08.339Z,33.82
2022-07-29T11:39:11.171Z,33.95
2022-07-29T11:40:11.212Z,34.1
2022-07-29T11:41:09.086Z,34.16
2022-07-29T11:42:18.826Z,34.18
2022-07-29T12:07:37.174Z,34.58
2022-07-29T12:08:23.165Z,34.48
2022-07-29T12:09:25.180Z,34.79
2022-07-29T12:10:32.814Z,34.63
2022-07-29T12:11:25.990Z,34.55
2022-07-29T12:12:26.727Z,34.44
2022-07-29T12:13:37.321Z,34.25
2022-07-29T12:14:27.598Z,34.35
2022-07-29T12:15:24.881Z,34.69
2022-07-29T12:16:32.715Z,34.88
2022-07-29T12:17:24.219Z,34.94
2022-07-29T12:18:26.516Z,35.15
2022-07-29T12:19:23.090Z,35.18
2022-07-29T12:20:25.050Z,35.34
2022-07-29T12:21:28.690Z,35.31
2022-07-29T12:22:27.514Z,35.2
2022-07-29T12:23:23.568Z,35.44
2022-07-29T12:24:29.454Z,35.37
2022-07-29T12:25:37.841Z,35.27
2022-07-29T12:26:30.279Z,35.32
2022-07-29T12:27:31.650Z,35.3
2022-07-29T12:28:32.974Z,35.39
2022-07-29T12:29:36.764Z,35.49
2022-07-29T12:30:24.784Z,35.66
2022-07-29T12:31:48.179Z,35.52
2022-07-29T12:32:24.534Z,35.52
2022-07-29T12:33:23.119Z,35.2
2022-07-29T12:34:23.110Z,35.39
2022-07-29T12:35:23.124Z,35.35
2022-07-29T12:36:25.993Z,35.44
2022-07-29T12:37:43.284Z,35.35
2022-07-29T12:38:23.120Z,35.39
2022-07-29T12:39:23.110Z,35.03
2022-07-29T12:40:23.128Z,34.86
2022-07-29T12:41:26.255Z,34.94
2022-07-29T12:42:25.736Z,34.96
2022-07-29T12:43:22.964Z,34.91
2022-07-29T12:44:23.129Z,34.82
2022-07-29T12:45:23.139Z,34.78
2022-07-29T12:46:23.355Z,34.91
2022-07-29T12:47:26.268Z,35.03
2022-07-29T12:48:23.134Z,34.86
2022-07-29T12:49:23.198Z,34.96
2022-07-29T12:50:28.832Z,34.88
2022-07-29T12:51:23.147Z,34.94
2022-07-29T12:52:24.778Z,35.12
2022-07-29T12:53:23.150Z,35.16
2022-07-29T12:54:23.146Z,35.27
2022-07-29T12:55:23.157Z,35.41
2022-07-29T12:56:47.691Z,35.34
2022-07-29T12:57:24.972Z,35.2
2022-07-29T12:58:26.171Z,35.19
2022-07-29T12:59:23.222Z,35.37
2022-07-29T13:00:23.158Z,35.47
2022-07-29T13:01:23.594Z,35.37
2022-07-29T13:02:23.345Z,35.41
2022-07-29T13:03:27.420Z,35.23
2022-07-29T13:04:23.173Z,35.41
2022-07-29T13:05:23.819Z,35.39
2022-07-29T13:06:23.180Z,35.37
2022-07-29T13:07:57.294Z,35.47
2022-07-29T13:08:26.643Z,35.38
2022-07-29T13:09:23.213Z,35.45
2022-07-29T13:10:28.799Z,35.34
2022-07-29T13:11:23.191Z,35.53
2022-07-29T13:12:23.189Z,35.56
2022-07-29T13:13:23.235Z,35.53
2022-07-29T13:14:26.293Z,35.68
2022-07-29T13:15:23.223Z,35.76
2022-07-29T13:16:23.386Z,35.6
2022-07-29T13:17:23.238Z,35.57
2022-07-29T13:18:26.660Z,35.61
2022-07-29T13:19:23.199Z,35.54
2022-07-29T13:20:23.240Z,35.49
2022-07-29T13:21:23.600Z,35.72
2022-07-29T13:22:23.221Z,35.64
2022-07-29T13:23:23.251Z,35.53
2022-07-29T13:24:24.571Z,35.37